createdAt,value
2019-01-31T00:00:30.082Z,10.07
2019-01-31T00:03:07.608Z,10.13
2019-01-31T00:05:54.074Z,10.87
2019-01-31T00:08:45.545Z,11.73
2019-01-31T00:11:25.331Z,11.23
2019-01-31T00:13:56.814Z,10.90
2019-01-31T00:16:40.102Z,10.47
2019-01-31T00:19:14.442Z,11.93
2019-01-31T00:21:48.489Z,11.10
2019-01-31T00:24:22.450Z,11.93
2019-01-31T00:27:02.691Z,12.23
2019-01-31T00:29:36.949Z,11.90
2019-01-31T00:32:14.258Z,11.90
2019-01-31T00:34:57.769Z,11.97
2019-01-31T00:37:48.842Z,13.10
2019-01-31T00:40:43.099Z,12.70
2019-01-31T00:43:23.308Z,13.00
2019-01-31T00:46:00.593Z,13.90
2019-01-31T00:48:34.637Z,13.03
2019-01-31T00:51:12.129Z,12.70
2019-01-31T00:53:43.667Z,13.13
2019-01-31T00:56:34.555Z,13.47
2019-01-31T00:59:06.050Z,14.33
2019-01-31T01:01:43.525Z,14.50
2019-01-31T01:04:20.702Z,13.67
2019-01-31T01:06:55.863Z,15.00
2019-01-31T01:09:39.214Z,15.07
2019-01-31T01:12:13.332Z,15.33
2019-01-31T01:14:53.343Z,14.50
2019-01-31T01:17:33.595Z,15.17
2019-01-31T01:20:32.195Z,14.60
2019-01-31T01:23:06.525Z,15.47
2019-01-31T01:25:56.111Z,16.10
2019-01-31T01:28:44.162Z,15.13
2019-01-31T01:31:24.336Z,15.77
2019-01-31T01:34:17.815Z,15.97
2019-01-31T01:37:07.278Z,17.13
2019-01-31T01:39:55.317Z,16.30
2019-01-31T01:42:32.565Z,14.87
2019-01-31T01:45:16.098Z,16.00
2019-01-31T01:47:47.608Z,14.33
2019-01-31T01:50:37.058Z,13.13
2019-01-31T01:53:08.742Z,14.80
2019-01-31T01:56:13.535Z,13.47
2019-01-31T01:59:06.094Z,13.67
2019-01-31T02:01:40.210Z,14.33
2019-01-31T02:04:17.602Z,14.03
2019-01-31T02:06:51.914Z,14.53
2019-01-31T02:09:35.555Z,14.13
2019-01-31T02:12:16.010Z,15.10
2019-01-31T02:14:56.609Z,15.60
2019-01-31T02:17:49.308Z,14.33
2019-01-31T02:20:26.506Z,14.43
2019-01-31T02:23:00.905Z,15.60
2019-01-31T02:25:35.083Z,15.00
2019-01-31T02:28:21.486Z,15.43
2019-01-31T02:31:13.539Z,15.33
2019-01-31T02:34:03.060Z,15.00
2019-01-31T02:36:34.521Z,16.60
2019-01-31T02:39:24.105Z,16.07
2019-01-31T02:42:01.004Z,15.67
2019-01-31T02:44:41.319Z,15.70
2019-01-31T02:47:12.796Z,15.87
2019-01-31T02:50:05.619Z,16.87
2019-01-31T02:52:41.679Z,17.23
2019-01-31T02:55:13.167Z,16.07
2019-01-31T02:57:47.193Z,16.50
2019-01-31T03:00:27.640Z,16.27
2019-01-31T03:03:04.794Z,16.17
2019-01-31T03:05:38.928Z,16.63
2019-01-31T03:08:13.118Z,16.00
2019-01-31T03:10:47.615Z,16.80
2019-01-31T03:13:19.127Z,16.13
2019-01-31T03:15:59.403Z,16.10
2019-01-31T03:18:36.890Z,16.53
2019-01-31T03:21:08.366Z,16.20
2019-01-31T03:24:02.305Z,16.37
2019-01-31T03:26:42.661Z,14.97
2019-01-31T03:29:39.903Z,15.40
2019-01-31T03:32:17.352Z,15.90
2019-01-31T03:34:51.734Z,14.93
2019-01-31T03:37:38.362Z,15.73
2019-01-31T03:40:32.511Z,14.43
2019-01-31T03:43:20.486Z,14.47
2019-01-31T03:46:19.271Z,13.77
2019-01-31T03:48:53.465Z,13.87
2019-01-31T03:51:39.995Z,14.97
2019-01-31T03:54:17.229Z,15.50
2019-01-31T03:56:57.611Z,15.47
2019-01-31T03:59:29.349Z,15.03
2019-01-31T04:02:12.755Z,15.17
2019-01-31T04:04:49.403Z,15.13
2019-01-31T04:07:17.844Z,16.57
2019-01-31T04:09:46.261Z,16.13
2019-01-31T04:12:14.704Z,15.53
2019-01-31T04:14:43.144Z,16.33
2019-01-31T04:17:11.598Z,16.53
2019-01-31T04:19:40.045Z,15.43
2019-01-31T04:22:09.211Z,15.50
2019-01-31T04:24:37.635Z,15.30
2019-01-31T04:27:06.139Z,15.07
2019-01-31T04:29:34.603Z,13.87
2019-01-31T04:32:03.076Z,14.03
2019-01-31T04:34:31.538Z,12.97
2019-01-31T04:36:59.963Z,13.10
2019-01-31T04:39:28.410Z,12.27
2019-01-31T04:41:56.868Z,12.33
2019-01-31T04:44:25.282Z,11.70
2019-01-31T04:46:53.731Z,12.30
2019-01-31T04:49:22.218Z,12.60
2019-01-31T04:51:50.706Z,12.13
2019-01-31T04:54:19.275Z,12.90
2019-01-31T04:56:47.694Z,11.50
2019-01-31T04:59:16.106Z,12.97
2019-01-31T05:01:44.546Z,11.97
2019-01-31T05:04:12.963Z,12.23
2019-01-31T05:06:41.493Z,13.80
2019-01-31T05:09:10.311Z,12.63
2019-01-31T05:11:38.690Z,12.40
2019-01-31T05:14:07.117Z,12.40
2019-01-31T05:16:35.555Z,13.63
2019-01-31T05:19:04.106Z,11.90
2019-01-31T05:21:32.542Z,11.30
2019-01-31T05:24:00.982Z,12.80
2019-01-31T05:26:29.423Z,12.73
2019-01-31T05:28:57.888Z,13.00
2019-01-31T05:31:26.414Z,12.80
2019-01-31T05:33:54.902Z,12.87
2019-01-31T05:36:23.346Z,12.90
2019-01-31T05:38:51.769Z,12.17
2019-01-31T05:41:20.210Z,12.30
2019-01-31T05:43:48.689Z,11.80
2019-01-31T05:46:18.439Z,12.23
2019-01-31T05:48:47.132Z,11.93
2019-01-31T05:51:15.542Z,11.53
2019-01-31T05:53:43.999Z,12.17
2019-01-31T05:56:12.439Z,12.80
2019-01-31T05:58:40.855Z,11.90
2019-01-31T06:01:09.325Z,11.97
2019-01-31T06:03:37.757Z,12.33
2019-01-31T06:06:06.254Z,11.90
2019-01-31T06:08:34.722Z,12.67
2019-01-31T06:11:07.617Z,13.10
2019-01-31T06:13:33.383Z,12.83
2019-01-31T06:16:01.798Z,12.20
2019-01-31T06:18:30.233Z,12.17
2019-01-31T06:20:58.764Z,12.13
2019-01-31T06:23:27.342Z,12.73
2019-01-31T06:25:55.808Z,12.80
2019-01-31T06:28:24.228Z,13.10
2019-01-31T06:30:52.734Z,13.33
2019-01-31T06:33:21.227Z,13.97
2019-01-31T06:35:49.682Z,13.17
2019-01-31T06:38:18.204Z,12.97
2019-01-31T06:40:46.626Z,13.37
2019-01-31T06:43:15.441Z,13.57
2019-01-31T06:45:43.881Z,14.93
2019-01-31T06:48:12.351Z,13.67
2019-01-31T06:50:40.772Z,15.00
2019-01-31T06:53:09.245Z,14.67
2019-01-31T06:55:37.715Z,14.43
2019-01-31T06:58:06.147Z,15.10
2019-01-31T07:00:34.590Z,14.93
2019-01-31T07:03:03.029Z,14.77
2019-01-31T07:05:31.491Z,15.57
2019-01-31T07:07:59.938Z,16.23
2019-01-31T07:10:28.452Z,16.03
2019-01-31T07:12:56.916Z,16.03
2019-01-31T07:15:25.335Z,17.07
2019-01-31T07:17:53.795Z,16.57
2019-01-31T07:20:22.364Z,17.60
2019-01-31T07:22:50.974Z,16.80
2019-01-31T07:25:21.751Z,17.77
2019-01-31T07:27:50.243Z,16.80
2019-01-31T07:30:23.320Z,16.40
2019-01-31T07:32:51.998Z,17.27
2019-01-31T07:35:20.883Z,17.57
2019-01-31T07:37:49.291Z,17.07
2019-01-31T07:40:20.285Z,17.60
2019-01-31T07:42:48.704Z,16.73
2019-01-31T07:45:20.054Z,16.97
2019-01-31T07:47:48.551Z,17.43
2019-01-31T07:50:21.123Z,16.90
2019-01-31T07:52:49.661Z,16.40
2019-01-31T07:55:19.146Z,17.00
2019-01-31T07:57:47.563Z,16.70
2019-01-31T08:00:21.095Z,15.40
2019-01-31T08:02:49.528Z,14.37
2019-01-31T08:05:25.541Z,13.97
2019-01-31T08:07:56.435Z,14.53
2019-01-31T08:10:30.560Z,13.83
2019-01-31T08:12:59.081Z,13.17
2019-01-31T08:15:27.595Z,12.93
2019-01-31T08:17:56.012Z,13.03
2019-01-31T08:20:24.435Z,13.40
2019-01-31T08:22:52.951Z,12.27
2019-01-31T08:25:26.137Z,12.33
2019-01-31T08:27:56.068Z,12.47
2019-01-31T08:30:27.233Z,12.27
2019-01-31T08:32:56.040Z,11.97
2019-01-31T08:35:24.513Z,11.10
2019-01-31T08:37:52.916Z,11.23
2019-01-31T08:40:21.461Z,11.60
2019-01-31T08:42:49.911Z,11.83
2019-01-31T08:45:18.406Z,11.50
2019-01-31T08:47:46.898Z,10.77
2019-01-31T08:50:21.405Z,12.07
2019-01-31T08:52:49.826Z,11.17
2019-01-31T08:55:18.325Z,12.13
2019-01-31T08:57:47.673Z,11.07
2019-01-31T09:00:21.897Z,10.70
2019-01-31T09:02:50.306Z,10.20
2019-01-31T09:05:18.721Z,9.10
2019-01-31T09:07:47.441Z,9.20
2019-01-31T09:10:21.484Z,9.77
2019-01-31T09:12:50.003Z,9.83
2019-01-31T09:15:23.124Z,9.63
2019-01-31T09:17:51.675Z,9.83
2019-01-31T09:20:44.478Z,9.70
2019-01-31T09:23:24.763Z,9.33
2019-01-31T09:26:10.831Z,9.10
2019-01-31T09:28:57.454Z,8.60
2019-01-31T09:31:51.121Z,9.50
2019-01-31T09:34:34.501Z,9.90
2019-01-31T09:37:08.687Z,9.47
2019-01-31T09:39:46.017Z,9.70
2019-01-31T09:42:26.953Z,9.50
2019-01-31T09:45:16.637Z,9.20
2019-01-31T09:47:53.962Z,8.67
2019-01-31T09:50:47.906Z,9.07
2019-01-31T09:53:21.873Z,9.50
2019-01-31T09:56:19.118Z,9.23
2019-01-31T09:58:53.195Z,9.10
2019-01-31T10:01:42.579Z,9.50
2019-01-31T10:04:16.937Z,9.23
2019-01-31T10:07:03.006Z,9.10
2019-01-31T10:09:42.656Z,8.73
2019-01-31T10:12:48.766Z,8.90
2019-01-31T10:15:25.971Z,9.17
2019-01-31T10:18:00.263Z,8.30
2019-01-31T10:20:40.684Z,7.73
2019-01-31T10:23:21.035Z,8.10
2019-01-31T10:26:04.641Z,8.13
2019-01-31T10:28:48.235Z,7.00
2019-01-31T10:31:31.413Z,6.87
2019-01-31T10:34:22.394Z,6.53
2019-01-31T10:37:16.210Z,6.87
2019-01-31T10:39:53.553Z,6.37
2019-01-31T10:42:36.823Z,6.90
2019-01-31T10:45:24.676Z,5.93
2019-01-31T10:47:56.069Z,5.37
2019-01-31T10:50:48.358Z,5.47
2019-01-31T10:53:44.009Z,4.30
2019-01-31T10:56:27.027Z,5.60
2019-01-31T10:58:58.496Z,4.97
2019-01-31T11:01:49.392Z,4.90
2019-01-31T11:04:29.444Z,4.70
2019-01-31T11:07:10.000Z,4.93
2019-01-31T11:09:59.606Z,5.67
2019-01-31T11:12:43.697Z,5.43
2019-01-31T11:15:20.924Z,5.47
2019-01-31T11:18:04.330Z,5.53
2019-01-31T11:20:38.716Z,5.63
2019-01-31T11:23:29.380Z,6.27
2019-01-31T11:26:21.921Z,6.60
2019-01-31T11:28:59.178Z,6.93
2019-01-31T11:31:39.268Z,7.00
2019-01-31T11:34:10.858Z,6.60
2019-01-31T11:36:57.222Z,5.77
2019-01-31T11:39:40.697Z,5.20
2019-01-31T11:42:17.820Z,6.87
2019-01-31T11:44:49.311Z,7.10
2019-01-31T11:47:43.404Z,6.27
2019-01-31T11:50:17.451Z,5.87
2019-01-31T11:52:54.410Z,6.23
2019-01-31T11:55:41.078Z,6.57
2019-01-31T11:58:24.394Z,6.83
2019-01-31T12:00:53.249Z,6.40
2019-01-31T12:03:22.310Z,6.53
2019-01-31T12:05:58.432Z,7.23
2019-01-31T12:08:26.905Z,7.93
2019-01-31T12:10:55.335Z,7.17
2019-01-31T12:13:23.970Z,6.97
2019-01-31T12:15:54.224Z,6.17
2019-01-31T12:18:22.769Z,6.07
2019-01-31T12:20:51.242Z,6.30
2019-01-31T12:23:19.748Z,6.17
2019-01-31T12:25:48.278Z,5.50
2019-01-31T12:28:16.742Z,6.37
2019-01-31T12:30:45.177Z,6.10
2019-01-31T12:33:13.621Z,5.83
2019-01-31T12:35:42.106Z,5.93
2019-01-31T12:38:10.526Z,7.03
2019-01-31T12:40:38.960Z,6.50
2019-01-31T12:43:07.450Z,6.20
2019-01-31T12:45:35.943Z,5.37
2019-01-31T12:48:04.459Z,4.97
2019-01-31T12:50:32.887Z,5.30
2019-01-31T12:53:02.358Z,5.43
2019-01-31T12:55:30.801Z,5.27
2019-01-31T12:57:59.293Z,4.70
2019-01-31T13:00:28.706Z,5.10
2019-01-31T13:02:57.159Z,4.20
2019-01-31T13:05:25.762Z,5.23
2019-01-31T13:07:54.249Z,5.13
2019-01-31T13:10:22.779Z,5.00
2019-01-31T13:12:52.231Z,5.47
2019-01-31T13:15:20.945Z,4.83
2019-01-31T13:17:49.378Z,4.80
2019-01-31T13:20:20.126Z,3.90
2019-01-31T13:22:51.451Z,4.37
2019-01-31T13:25:20.852Z,4.30
2019-01-31T13:27:49.426Z,4.60
2019-01-31T13:30:20.706Z,3.70
2019-01-31T13:32:50.062Z,4.63
2019-01-31T13:35:18.479Z,3.53
2019-01-31T13:37:46.894Z,3.87
2019-01-31T13:40:18.253Z,3.67
2019-01-31T13:42:46.814Z,4.10
2019-01-31T13:45:21.478Z,4.20
2019-01-31T13:47:50.040Z,4.10
2019-01-31T13:50:18.609Z,4.17
2019-01-31T13:52:47.096Z,3.60
2019-01-31T13:55:21.386Z,3.67
2019-01-31T13:57:49.788Z,3.90
2019-01-31T14:00:20.669Z,3.87
2019-01-31T14:02:49.169Z,3.27
2019-01-31T14:05:17.664Z,3.30
2019-01-31T14:07:46.215Z,3.37
2019-01-31T14:10:25.607Z,3.50
2019-01-31T14:12:55.077Z,3.20
2019-01-31T14:15:33.381Z,3.20
2019-01-31T14:17:56.858Z,3.67
2019-01-31T14:20:27.596Z,3.23
2019-01-31T14:22:56.482Z,3.70
2019-01-31T14:25:25.004Z,3.13
2019-01-31T14:27:53.541Z,3.10
2019-01-31T14:30:27.898Z,2.70
2019-01-31T14:32:56.877Z,3.57
2019-01-31T14:35:25.545Z,3.70
2019-01-31T14:37:53.956Z,3.40
2019-01-31T14:40:22.932Z,3.03
2019-01-31T14:42:51.438Z,3.53
2019-01-31T14:45:19.835Z,3.63
2019-01-31T14:47:48.254Z,3.20
2019-01-31T14:50:34.310Z,3.57
2019-01-31T14:53:02.739Z,3.27
2019-01-31T14:55:31.184Z,3.73
2019-01-31T14:57:59.654Z,3.07
2019-01-31T15:00:32.809Z,3.60
2019-01-31T15:03:01.426Z,3.83
2019-01-31T15:05:29.963Z,3.50
2019-01-31T15:07:58.360Z,3.13
2019-01-31T15:10:29.040Z,3.60
2019-01-31T15:12:57.681Z,3.07
2019-01-31T15:15:26.349Z,2.97
2019-01-31T15:17:55.706Z,3.30
2019-01-31T15:20:37.488Z,3.10
2019-01-31T15:23:00.277Z,3.33
2019-01-31T15:25:29.233Z,3.00
2019-01-31T15:27:57.691Z,3.10
2019-01-31T15:30:35.227Z,3.17
2019-01-31T15:33:06.600Z,3.30
2019-01-31T15:35:35.024Z,2.87
2019-01-31T15:38:03.577Z,3.53
2019-01-31T15:40:43.569Z,3.50
2019-01-31T15:43:12.133Z,3.33
2019-01-31T15:45:40.732Z,3.70
2019-01-31T15:48:10.737Z,3.30
2019-01-31T15:50:39.567Z,3.30
2019-01-31T15:53:08.226Z,3.13
2019-01-31T15:55:36.965Z,4.03
2019-01-31T15:58:06.661Z,3.60
2019-01-31T16:00:42.091Z,3.80
2019-01-31T16:03:12.651Z,3.43
2019-01-31T16:05:41.512Z,3.37
2019-01-31T16:08:10.935Z,4.10
2019-01-31T16:10:39.466Z,3.27
2019-01-31T16:13:08.709Z,4.13
2019-01-31T16:15:37.278Z,3.27
2019-01-31T16:18:08.407Z,3.77
2019-01-31T16:20:37.325Z,3.37
2019-01-31T16:23:09.130Z,3.60
2019-01-31T16:25:37.731Z,3.53
2019-01-31T16:28:06.311Z,3.37
2019-01-31T16:30:34.811Z,3.93
2019-01-31T16:33:03.369Z,3.27
2019-01-31T16:35:32.222Z,3.60
2019-01-31T16:38:00.622Z,3.50
2019-01-31T16:40:29.080Z,3.80
2019-01-31T16:42:57.646Z,3.80
2019-01-31T16:45:26.425Z,4.60
2019-01-31T16:47:54.891Z,4.50
2019-01-31T16:50:25.178Z,3.73
2019-01-31T16:52:53.677Z,4.33
2019-01-31T16:55:27.260Z,4.10
2019-01-31T16:57:57.240Z,4.33
2019-01-31T17:00:31.246Z,4.03
2019-01-31T17:03:00.537Z,4.40
2019-01-31T17:05:33.418Z,5.00
2019-01-31T17:08:01.903Z,4.60
2019-01-31T17:10:30.311Z,4.47
2019-01-31T17:13:00.081Z,3.90
2019-01-31T17:15:29.320Z,5.73
2019-01-31T17:17:57.818Z,4.60
2019-01-31T17:20:35.214Z,4.90
2019-01-31T17:23:04.123Z,4.60
2019-01-31T17:25:32.666Z,4.30
2019-01-31T17:28:01.158Z,4.50
2019-01-31T17:30:30.310Z,3.90
2019-01-31T17:33:00.366Z,4.43
2019-01-31T17:35:29.136Z,4.30
2019-01-31T17:37:57.562Z,4.63
2019-01-31T17:40:31.660Z,8.43
2019-01-31T17:43:00.233Z,4.07
2019-01-31T17:45:30.973Z,4.30
2019-01-31T17:47:59.087Z,4.23
2019-01-31T17:50:27.573Z,5.90
2019-01-31T17:52:56.093Z,4.53
2019-01-31T17:55:27.117Z,3.73
2019-01-31T17:57:55.596Z,4.20
2019-01-31T18:00:34.168Z,4.20
2019-01-31T18:03:02.647Z,4.80
2019-01-31T18:05:31.071Z,4.07
2019-01-31T18:07:59.537Z,4.03
2019-01-31T18:10:28.114Z,3.37
2019-01-31T18:12:56.572Z,3.50
2019-01-31T18:15:25.165Z,3.53
2019-01-31T18:17:53.932Z,3.53
2019-01-31T18:20:23.898Z,3.70
2019-01-31T18:22:52.589Z,3.77
2019-01-31T18:25:21.083Z,3.63
2019-01-31T18:27:49.554Z,3.57
2019-01-31T18:30:29.864Z,3.63
2019-01-31T18:32:58.363Z,3.50
2019-01-31T18:35:26.885Z,4.03
2019-01-31T18:37:55.392Z,3.57
2019-01-31T18:40:26.597Z,3.80
2019-01-31T18:42:55.258Z,3.80
2019-01-31T18:45:26.523Z,3.57
2019-01-31T18:47:54.960Z,3.93
2019-01-31T18:50:28.499Z,4.30
2019-01-31T18:52:57.184Z,4.40
2019-01-31T18:55:26.650Z,3.97
2019-01-31T18:57:55.410Z,4.23
2019-01-31T19:00:29.803Z,4.47
2019-01-31T19:02:58.786Z,3.90
2019-01-31T19:05:27.276Z,4.20
2019-01-31T19:07:56.157Z,3.83
2019-01-31T19:10:24.664Z,4.57
2019-01-31T19:12:53.281Z,3.97
2019-01-31T19:15:23.967Z,4.27
2019-01-31T19:17:52.738Z,4.40
2019-01-31T19:20:31.687Z,3.80
2019-01-31T19:23:05.881Z,3.80
2019-01-31T19:25:35.105Z,4.40
2019-01-31T19:28:03.611Z,4.40
2019-01-31T19:30:40.328Z,3.60
2019-01-31T19:33:09.500Z,4.10
2019-01-31T19:35:38.048Z,4.07
2019-01-31T19:38:07.509Z,4.30
2019-01-31T19:40:43.564Z,3.90
2019-01-31T19:43:12.377Z,4.20
2019-01-31T19:45:43.602Z,4.07
2019-01-31T19:48:12.162Z,4.10
2019-01-31T19:50:43.359Z,3.83
2019-01-31T19:53:11.256Z,4.23
2019-01-31T19:55:39.767Z,3.83
2019-01-31T19:58:08.264Z,4.10
2019-01-31T20:00:37.071Z,3.47
2019-01-31T20:03:06.962Z,4.20
2019-01-31T20:05:36.012Z,3.87
2019-01-31T20:08:06.270Z,3.50
2019-01-31T20:10:34.782Z,4.27
2019-01-31T20:13:03.220Z,4.17
2019-01-31T20:15:31.725Z,4.03
2019-01-31T20:18:00.631Z,4.70
2019-01-31T20:20:30.091Z,4.13
2019-01-31T20:22:59.836Z,4.47
2019-01-31T20:25:30.259Z,4.97
2019-01-31T20:27:59.164Z,4.33
2019-01-31T20:30:30.651Z,4.40
2019-01-31T20:33:00.422Z,5.23
2019-01-31T20:35:29.497Z,5.33
2019-01-31T20:37:58.087Z,4.33
2019-01-31T20:40:29.425Z,4.30
2019-01-31T20:42:58.122Z,4.50
2019-01-31T20:45:26.949Z,4.77
2019-01-31T20:47:55.362Z,5.10
2019-01-31T20:50:29.379Z,5.03
2019-01-31T20:52:58.527Z,4.50
2019-01-31T20:55:27.101Z,4.93
2019-01-31T20:57:55.584Z,5.37
2019-01-31T21:00:33.868Z,4.63
2019-01-31T21:03:02.887Z,4.37
2019-01-31T21:05:31.437Z,5.03
2019-01-31T21:08:00.020Z,5.13
2019-01-31T21:10:28.525Z,5.20
2019-01-31T21:12:57.156Z,4.93
2019-01-31T21:15:26.589Z,4.93
2019-01-31T21:17:55.388Z,4.90
2019-01-31T21:20:26.387Z,5.10
2019-01-31T21:22:56.069Z,5.30
2019-01-31T21:25:24.669Z,5.70
2019-01-31T21:27:53.618Z,5.03
2019-01-31T21:30:28.177Z,5.30
2019-01-31T21:32:56.829Z,4.97
2019-01-31T21:35:27.213Z,5.07
2019-01-31T21:37:55.777Z,4.53
2019-01-31T21:40:26.719Z,5.27
2019-01-31T21:42:55.196Z,5.60
2019-01-31T21:45:24.949Z,5.10
2019-01-31T21:47:53.393Z,5.70
2019-01-31T21:50:24.439Z,5.10
2019-01-31T21:52:52.877Z,5.07
2019-01-31T21:55:21.737Z,5.77
2019-01-31T21:57:50.234Z,5.03
2019-01-31T22:00:24.616Z,5.40
2019-01-31T22:02:53.103Z,5.00
2019-01-31T22:05:22.633Z,5.07
2019-01-31T22:07:51.103Z,5.27
2019-01-31T22:10:20.779Z,5.70
2019-01-31T22:12:49.294Z,5.47
2019-01-31T22:15:31.206Z,5.30
2019-01-31T22:18:00.426Z,5.30
2019-01-31T22:20:29.556Z,5.80
2019-01-31T22:22:58.235Z,5.57
2019-01-31T22:25:26.772Z,5.30
2019-01-31T22:27:55.214Z,5.97
2019-01-31T22:30:29.623Z,6.43
2019-01-31T22:32:58.134Z,6.17
2019-01-31T22:35:26.537Z,6.50
2019-01-31T22:37:55.082Z,6.27
2019-01-31T22:40:23.760Z,6.03
2019-01-31T22:42:52.346Z,5.97
2019-01-31T22:45:26.415Z,7.50
2019-01-31T22:47:56.216Z,6.50
2019-01-31T22:50:25.091Z,7.77
2019-01-31T22:52:53.555Z,7.27
2019-01-31T22:55:24.122Z,7.20
2019-01-31T22:57:53.011Z,7.97
2019-01-31T23:00:44.077Z,6.77
2019-01-31T23:03:12.732Z,7.97
2019-01-31T23:05:41.286Z,8.50
2019-01-31T23:08:09.801Z,8.20
2019-01-31T23:10:38.361Z,7.70
2019-01-31T23:13:06.886Z,8.20
2019-01-31T23:15:35.388Z,7.97
2019-01-31T23:18:04.090Z,8.03
2019-01-31T23:20:32.640Z,8.40
2019-01-31T23:23:01.084Z,9.67
2019-01-31T23:25:39.726Z,9.13
2019-01-31T23:27:59.983Z,8.77
2019-01-31T23:30:28.483Z,8.97
2019-01-31T23:32:56.989Z,9.80
2019-01-31T23:35:25.462Z,10.00
2019-01-31T23:37:53.903Z,9.63
2019-01-31T23:40:22.532Z,9.47
2019-01-31T23:42:51.235Z,9.33
2019-01-31T23:45:20.524Z,10.90
2019-01-31T23:47:49.398Z,9.30
2019-01-31T23:50:18.199Z,10.07
2019-01-31T23:52:46.751Z,8.93
2019-01-31T23:55:19.407Z,10.40
2019-01-31T23:57:47.982Z,10.27
